sensor_id;sensor_type;location;lat;lon;timestamp;pressure;altitude;pressure_sealevel;temperature;humidity
3132;BME280;62090;52.330;9.104;2022-11-20T00:01:24;100772.50;;;-0.61;78.72
3132;BME280;62090;52.330;9.104;2022-11-20T00:03:57;100760.13;;;-0.83;79.63
3132;BME280;62090;52.330;9.104;2022-11-20T00:06:30;100784.56;;;-0.67;79.97
3132;BME280;62090;52.330;9.104;2022-11-20T00:09:00;100762.94;;;-0.78;79.83
3132;BME280;62090;52.330;9.104;2022-11-20T00:11:32;100768.94;;;-0.65;79.07
3132;BME280;62090;52.330;9.104;2022-11-20T00:14:02;100748.81;;;-0.78;79.04
3132;BME280;62090;52.330;9.104;2022-11-20T00:16:34;100748.06;;;-0.77;78.62
3132;BME280;62090;52.330;9.104;2022-11-20T00:19:05;100775.31;;;-0.68;78.43
3132;BME280;62090;52.330;9.104;2022-11-20T00:21:36;100759.25;;;-0.83;78.07
3132;BME280;62090;52.330;9.104;2022-11-20T00:24:10;100775.00;;;-0.73;78.07
3132;BME280;62090;52.330;9.104;2022-11-20T00:26:40;100771.88;;;-0.70;78.09
3132;BME280;62090;52.330;9.104;2022-11-20T00:29:11;100766.75;;;-0.72;77.68
3132;BME280;62090;52.330;9.104;2022-11-20T00:31:44;100736.25;;;-0.91;77.28
3132;BME280;62090;52.330;9.104;2022-11-20T00:34:23;100767.44;;;-0.74;77.25
3132;BME280;62090;52.330;9.104;2022-11-20T00:36:52;100756.75;;;-0.83;77.30
3132;BME280;62090;52.330;9.104;2022-11-20T00:39:26;100771.00;;;-0.71;77.67
3132;BME280;62090;52.330;9.104;2022-11-20T00:41:58;100758.25;;;-0.74;77.70
3132;BME280;62090;52.330;9.104;2022-11-20T00:44:31;100759.38;;;-0.70;77.10
3132;BME280;62090;52.330;9.104;2022-11-20T00:47:06;100733.81;;;-0.90;77.00
3132;BME280;62090;52.330;9.104;2022-11-20T00:49:38;100776.13;;;-0.81;77.64
3132;BME280;62090;52.330;9.104;2022-11-20T00:52:15;100760.25;;;-0.81;77.55
3132;BME280;62090;52.330;9.104;2022-11-20T00:54:48;100731.44;;;-1.00;77.78
3132;BME280;62090;52.330;9.104;2022-11-20T00:57:19;100750.16;;;-0.95;78.21
3132;BME280;62090;52.330;9.104;2022-11-20T00:59:48;100745.13;;;-0.95;77.69
3132;BME280;62090;52.330;9.104;2022-11-20T01:02:21;100756.88;;;-0.82;77.25
3132;BME280;62090;52.330;9.104;2022-11-20T01:04:51;100759.06;;;-0.87;77.50
3132;BME280;62090;52.330;9.104;2022-11-20T01:07:20;100727.44;;;-1.09;77.54
3132;BME280;62090;52.330;9.104;2022-11-20T01:09:51;100754.50;;;-1.04;78.55
3132;BME280;62090;52.330;9.104;2022-11-20T01:12:25;100760.81;;;-0.97;78.56
3132;BME280;62090;52.330;9.104;2022-11-20T01:14:55;100753.88;;;-1.01;78.10
3132;BME280;62090;52.330;9.104;2022-11-20T01:17:27;100748.44;;;-1.07;77.71
3132;BME280;62090;52.330;9.104;2022-11-20T01:19:57;100754.75;;;-1.24;78.55
3132;BME280;62090;52.330;9.104;2022-11-20T01:22:28;100711.94;;;-1.40;78.52
3132;BME280;62090;52.330;9.104;2022-11-20T01:24:58;100768.44;;;-1.07;78.03
3132;BME280;62090;52.330;9.104;2022-11-20T01:27:28;100762.75;;;-1.05;77.73
3132;BME280;62090;52.330;9.104;2022-11-20T01:29:59;100750.06;;;-1.08;78.16
3132;BME280;62090;52.330;9.104;2022-11-20T01:32:32;100752.75;;;-1.05;77.88
3132;BME280;62090;52.330;9.104;2022-11-20T01:35:05;100748.94;;;-1.00;77.77
3132;BME280;62090;52.330;9.104;2022-11-20T01:37:40;100701.50;;;-1.23;77.22
3132;BME280;62090;52.330;9.104;2022-11-20T01:40:11;100744.94;;;-0.98;77.15
3132;BME280;62090;52.330;9.104;2022-11-20T01:42:47;100741.25;;;-1.03;77.70
3132;BME280;62090;52.330;9.104;2022-11-20T01:46:02;100721.94;;;-1.29;77.39
3132;BME280;62090;52.330;9.104;2022-11-20T01:48:44;100737.56;;;-1.19;77.89
3132;BME280;62090;52.330;9.104;2022-11-20T01:51:24;100742.25;;;-1.24;78.32
3132;BME280;62090;52.330;9.104;2022-11-20T01:53:57;100737.56;;;-1.19;78.65
3132;BME280;62090;52.330;9.104;2022-11-20T01:56:29;100733.63;;;-1.16;78.30
3132;BME280;62090;52.330;9.104;2022-11-20T01:59:04;100729.31;;;-1.07;78.06
3132;BME280;62090;52.330;9.104;2022-11-20T02:01:39;100721.56;;;-1.10;78.37
3132;BME280;62090;52.330;9.104;2022-11-20T02:04:13;100713.63;;;-1.04;77.73
3132;BME280;62090;52.330;9.104;2022-11-20T02:06:47;100721.81;;;-1.07;77.10
3132;BME280;62090;52.330;9.104;2022-11-20T02:09:21;100710.06;;;-1.08;77.53
3132;BME280;62090;52.330;9.104;2022-11-20T02:11:53;100692.88;;;-1.15;78.12
3132;BME280;62090;52.330;9.104;2022-11-20T02:14:23;100713.63;;;-1.04;77.70
3132;BME280;62090;52.330;9.104;2022-11-20T02:16:54;100657.16;;;-1.37;77.15
3132;BME280;62090;52.330;9.104;2022-11-20T02:19:30;100698.44;;;-1.19;78.09
3132;BME280;62090;52.330;9.104;2022-11-20T02:22:02;100705.63;;;-1.12;78.20
3132;BME280;62090;52.330;9.104;2022-11-20T02:24:39;100710.38;;;-1.15;77.70
3132;BME280;62090;52.330;9.104;2022-11-20T02:27:15;100714.19;;;-1.20;78.05
3132;BME280;62090;52.330;9.104;2022-11-20T02:29:49;100711.06;;;-1.29;78.74
3132;BME280;62090;52.330;9.104;2022-11-20T02:32:27;100705.31;;;-1.28;78.58
3132;BME280;62090;52.330;9.104;2022-11-20T02:35:06;100710.06;;;-1.43;78.57
3132;BME280;62090;52.330;9.104;2022-11-20T02:37:39;100688.69;;;-1.51;79.27
3132;BME280;62090;52.330;9.104;2022-11-20T02:40:12;100704.00;;;-1.23;79.08
3132;BME280;62090;52.330;9.104;2022-11-20T02:42:46;100682.25;;;-1.47;80.43
3132;BME280;62090;52.330;9.104;2022-11-20T02:45:17;100699.13;;;-1.45;80.53
3132;BME280;62090;52.330;9.104;2022-11-20T02:47:47;100709.31;;;-1.42;79.90
3132;BME280;62090;52.330;9.104;2022-11-20T02:50:17;100702.78;;;-1.51;80.40
3132;BME280;62090;52.330;9.104;2022-11-20T02:52:47;100633.72;;;-1.86;80.95
3132;BME280;62090;52.330;9.104;2022-11-20T02:55:20;100707.47;;;-1.44;80.78
3132;BME280;62090;52.330;9.104;2022-11-20T02:57:53;100697.59;;;-1.54;80.60
3132;BME280;62090;52.330;9.104;2022-11-20T03:00:23;100706.41;;;-1.59;80.73
3132;BME280;62090;52.330;9.104;2022-11-20T03:02:52;100674.97;;;-1.79;80.99
3132;BME280;62090;52.330;9.104;2022-11-20T03:05:22;100688.91;;;-1.59;80.62
3132;BME280;62090;52.330;9.104;2022-11-20T03:07:52;100670.97;;;-1.65;80.10
3132;BME280;62090;52.330;9.104;2022-11-20T03:10:25;100670.13;;;-1.54;79.30
3132;BME280;62090;52.330;9.104;2022-11-20T03:12:55;100685.63;;;-1.47;79.01
3132;BME280;62090;52.330;9.104;2022-11-20T03:15:25;100673.06;;;-1.48;78.64
3132;BME280;62090;52.330;9.104;2022-11-20T03:17:55;100650.66;;;-1.58;78.24
3132;BME280;62090;52.330;9.104;2022-11-20T03:20:25;100666.63;;;-1.45;78.36
3132;BME280;62090;52.330;9.104;2022-11-20T03:22:54;100678.69;;;-1.51;78.26
3132;BME280;62090;52.330;9.104;2022-11-20T03:25:27;100607.66;;;-1.89;78.58
3132;BME280;62090;52.330;9.104;2022-11-20T03:27:57;100656.97;;;-1.52;77.94
3132;BME280;62090;52.330;9.104;2022-11-20T03:30:26;100650.88;;;-1.55;77.68
3132;BME280;62090;52.330;9.104;2022-11-20T03:32:56;100663.91;;;-1.48;77.67
3132;BME280;62090;52.330;9.104;2022-11-20T03:35:26;100642.09;;;-1.62;77.53
3132;BME280;62090;52.330;9.104;2022-11-20T03:37:57;100661.75;;;-1.55;77.25
3132;BME280;62090;52.330;9.104;2022-11-20T03:40:29;100658.69;;;-1.62;77.48
3132;BME280;62090;52.330;9.104;2022-11-20T03:42:59;100670.00;;;-1.67;77.58
3132;BME280;62090;52.330;9.104;2022-11-20T03:45:29;100656.63;;;-1.68;77.83
3132;BME280;62090;52.330;9.104;2022-11-20T03:47:59;100667.19;;;-1.60;77.54
3132;BME280;62090;52.330;9.104;2022-11-20T03:50:28;100662.19;;;-1.60;78.10
3132;BME280;62090;52.330;9.104;2022-11-20T03:52:58;100662.19;;;-1.60;77.83
3132;BME280;62090;52.330;9.104;2022-11-20T03:55:31;100612.91;;;-1.75;77.35
3132;BME280;62090;52.330;9.104;2022-11-20T03:58:00;100640.78;;;-1.68;77.07
3132;BME280;62090;52.330;9.104;2022-11-20T04:00:30;100652.19;;;-1.72;77.50
3132;BME280;62090;52.330;9.104;2022-11-20T04:03:00;100654.81;;;-1.71;77.62
3132;BME280;62090;52.330;9.104;2022-11-20T04:05:30;100508.91;;;-2.56;77.56
3132;BME280;62090;52.330;9.104;2022-11-20T04:08:00;100625.47;;;-1.85;77.65
3132;BME280;62090;52.330;9.104;2022-11-20T04:10:35;100664.56;;;-1.74;77.27
3132;BME280;62090;52.330;9.104;2022-11-20T04:13:04;100647.59;;;-2.01;78.26
3132;BME280;62090;52.330;9.104;2022-11-20T04:15:34;100663.03;;;-1.83;78.96
3132;BME280;62090;52.330;9.104;2022-11-20T04:18:04;100657.41;;;-1.81;79.00
3132;BME280;62090;52.330;9.104;2022-11-20T04:20:35;100669.97;;;-1.79;78.68
3132;BME280;62090;52.330;9.104;2022-11-20T04:23:04;100666.09;;;-1.76;78.15
3132;BME280;62090;52.330;9.104;2022-11-20T04:25:37;100664.56;;;-1.74;79.32
3132;BME280;62090;52.330;9.104;2022-11-20T04:28:06;100654.81;;;-1.71;79.50
3132;BME280;62090;52.330;9.104;2022-11-20T04:30:36;100641.31;;;-1.73;78.89
3132;BME280;62090;52.330;9.104;2022-11-20T04:33:06;100640.66;;;-1.58;78.81
3132;BME280;62090;52.330;9.104;2022-11-20T04:35:37;100654.13;;;-1.45;79.14
3132;BME280;62090;52.330;9.104;2022-11-20T04:38:07;100618.72;;;-1.62;79.18
3132;BME280;62090;52.330;9.104;2022-11-20T04:40:39;100638.06;;;-1.48;79.95
3132;BME280;62090;52.330;9.104;2022-11-20T04:43:09;100652.84;;;-1.51;80.48
3132;BME280;62090;52.330;9.104;2022-11-20T04:45:38;100623.09;;;-1.60;80.97
3132;BME280;62090;52.330;9.104;2022-11-20T04:48:08;100634.25;;;-1.43;80.99
3132;BME280;62090;52.330;9.104;2022-11-20T04:50:39;100628.34;;;-1.32;81.15
3132;BME280;62090;52.330;9.104;2022-11-20T04:53:09;100624.59;;;-1.39;81.66
3132;BME280;62090;52.330;9.104;2022-11-20T04:55:42;100629.56;;;-1.27;81.24
3132;BME280;62090;52.330;9.104;2022-11-20T04:58:12;100615.09;;;-1.31;80.97
3132;BME280;62090;52.330;9.104;2022-11-20T05:00:42;100627.59;;;-1.31;81.48
3132;BME280;62090;52.330;9.104;2022-11-20T05:03:11;100623.72;;;-1.39;81.99
3132;BME280;62090;52.330;9.104;2022-11-20T05:05:41;100640.53;;;-1.25;81.84
3132;BME280;62090;52.330;9.104;2022-11-20T05:08:11;100641.28;;;-1.26;82.19
3132;BME280;62090;52.330;9.104;2022-11-20T05:10:43;100642.31;;;-1.11;81.68
3132;BME280;62090;52.330;9.104;2022-11-20T05:13:13;100637.56;;;-1.19;81.65
3132;BME280;62090;52.330;9.104;2022-11-20T05:15:43;100603.72;;;-1.27;81.54
3132;BME280;62090;52.330;9.104;2022-11-20T05:18:13;100627.09;;;-1.02;81.68
3132;BME280;62090;52.330;9.104;2022-11-20T05:20:43;100629.06;;;-1.10;81.45
3132;BME280;62090;52.330;9.104;2022-11-20T05:23:12;100590.06;;;-1.56;82.39
3132;BME280;62090;52.330;9.104;2022-11-20T05:25:45;100611.72;;;-1.32;82.33
3132;BME280;62090;52.330;9.104;2022-11-20T05:28:23;100614.09;;;-1.21;82.90
3132;BME280;62090;52.330;9.104;2022-11-20T05:30:53;100634.59;;;-1.02;82.83
3132;BME280;62090;52.330;9.104;2022-11-20T05:33:23;100614.81;;;-1.11;83.09
3132;BME280;62090;52.330;9.104;2022-11-20T05:35:53;100622.09;;;-1.02;82.42
3132;BME280;62090;52.330;9.104;2022-11-20T05:38:27;100635.34;;;-0.92;82.87
3132;BME280;62090;52.330;9.104;2022-11-20T05:41:06;100633.75;;;-0.78;82.25
3132;BME280;62090;52.330;9.104;2022-11-20T05:43:37;100621.56;;;-0.73;81.92
3132;BME280;62090;52.330;9.104;2022-11-20T05:46:09;100631.78;;;-0.70;81.80
3132;BME280;62090;52.330;9.104;2022-11-20T05:48:40;100623.97;;;-0.75;81.92
3132;BME280;62090;52.330;9.104;2022-11-20T05:51:12;100626.22;;;-0.66;82.38
3132;BME280;62090;52.330;9.104;2022-11-20T05:53:43;100636.94;;;-0.56;82.04
3132;BME280;62090;52.330;9.104;2022-11-20T05:56:18;100634.94;;;-0.48;82.21
3132;BME280;62090;52.330;9.104;2022-11-20T05:58:49;100631.47;;;-0.50;82.12
3132;BME280;62090;52.330;9.104;2022-11-20T06:01:21;100636.19;;;-0.42;82.06
3132;BME280;62090;52.330;9.104;2022-11-20T06:03:52;100629.25;;;-0.46;82.63
3132;BME280;62090;52.330;9.104;2022-11-20T06:06:22;100626.47;;;-0.50;82.63
3132;BME280;62090;52.330;9.104;2022-11-20T06:08:52;100615.16;;;-0.57;82.76
3132;BME280;62090;52.330;9.104;2022-11-20T06:11:25;100618.44;;;-0.58;82.43
3132;BME280;62090;52.330;9.104;2022-11-20T06:13:55;100615.44;;;-0.65;82.77
3132;BME280;62090;52.330;9.104;2022-11-20T06:16:25;100604.84;;;-0.74;82.96
3132;BME280;62090;52.330;9.104;2022-11-20T06:18:55;100603.84;;;-0.76;82.98
3132;BME280;62090;52.330;9.104;2022-11-20T06:21:24;100599.47;;;-0.92;83.95
3132;BME280;62090;52.330;9.104;2022-11-20T06:23:54;100605.09;;;-0.95;83.95
3132;BME280;62090;52.330;9.104;2022-11-20T06:26:27;100587.59;;;-0.95;84.10
3132;BME280;62090;52.330;9.104;2022-11-20T06:28:57;100602.22;;;-1.01;84.91
3132;BME280;62090;52.330;9.104;2022-11-20T06:31:27;100602.69;;;-0.81;84.39
3132;BME280;62090;52.330;9.104;2022-11-20T06:33:59;100612.34;;;-0.74;84.60
3132;BME280;62090;52.330;9.104;2022-11-20T06:36:29;100592.81;;;-0.67;84.81
3132;BME280;62090;52.330;9.104;2022-11-20T06:38:59;100607.66;;;-0.57;84.83
3132;BME280;62090;52.330;9.104;2022-11-20T06:41:31;100600.41;;;-0.40;84.58
3132;BME280;62090;52.330;9.104;2022-11-20T06:44:01;100591.06;;;-0.43;84.48
3132;BME280;62090;52.330;9.104;2022-11-20T06:46:32;100589.91;;;-0.35;84.13
3132;BME280;62090;52.330;9.104;2022-11-20T06:49:02;100599.06;;;-0.35;84.16
3132;BME280;62090;52.330;9.104;2022-11-20T06:51:32;100603.38;;;-0.46;84.30
3132;BME280;62090;52.330;9.104;2022-11-20T06:54:02;100586.94;;;-0.67;85.25
3132;BME280;62090;52.330;9.104;2022-11-20T06:56:34;100595.16;;;-0.57;86.27
3132;BME280;62090;52.330;9.104;2022-11-20T06:59:04;100592.78;;;-0.42;86.08
3132;BME280;62090;52.330;9.104;2022-11-20T07:01:35;100568.09;;;-0.62;86.21
3132;BME280;62090;52.330;9.104;2022-11-20T07:04:04;100586.34;;;-0.76;87.53
3132;BME280;62090;52.330;9.104;2022-11-20T07:06:34;100565.00;;;-0.96;88.82
3132;BME280;62090;52.330;9.104;2022-11-20T07:09:04;100583.59;;;-0.93;88.90
3132;BME280;62090;52.330;9.104;2022-11-20T07:11:41;100585.31;;;-0.92;89.47
3132;BME280;62090;52.330;9.104;2022-11-20T07:14:11;100581.19;;;-0.91;89.48
3132;BME280;62090;52.330;9.104;2022-11-20T07:16:40;100576.50;;;-0.87;90.05
3132;BME280;62090;52.330;9.104;2022-11-20T07:19:10;100567.06;;;-0.91;89.59
3132;BME280;62090;52.330;9.104;2022-11-20T07:21:47;100575.31;;;-0.92;90.12
3132;BME280;62090;52.330;9.104;2022-11-20T07:24:16;100567.56;;;-1.08;91.44
3132;BME280;62090;52.330;9.104;2022-11-20T07:26:52;100597.97;;;-0.77;90.97
3132;BME280;62090;52.330;9.104;2022-11-20T07:29:26;100615.94;;;-0.82;89.80
3132;BME280;62090;52.330;9.104;2022-11-20T07:31:56;100586.38;;;-0.88;88.59
3132;BME280;62090;52.330;9.104;2022-11-20T07:34:26;100549.44;;;-0.92;88.66
3132;BME280;62090;52.330;9.104;2022-11-20T07:36:59;100595.59;;;-0.75;89.02
3132;BME280;62090;52.330;9.104;2022-11-20T07:39:39;100599.56;;;-0.66;87.87
3132;BME280;62090;52.330;9.104;2022-11-20T07:42:17;100620.13;;;-0.45;86.67
3132;BME280;62090;52.330;9.104;2022-11-20T07:44:50;100606.09;;;-0.30;86.98
3132;BME280;62090;52.330;9.104;2022-11-20T07:47:20;100588.41;;;-0.20;86.69
3132;BME280;62090;52.330;9.104;2022-11-20T07:49:50;100594.00;;;0.03;86.04
3132;BME280;62090;52.330;9.104;2022-11-20T07:52:23;100603.84;;;0.13;85.48
3132;BME280;62090;52.330;9.104;2022-11-20T07:55:00;100616.56;;;0.29;85.20
3132;BME280;62090;52.330;9.104;2022-11-20T07:57:33;100601.81;;;0.33;84.56
3132;BME280;62090;52.330;9.104;2022-11-20T08:00:05;100590.06;;;0.19;84.72
3132;BME280;62090;52.330;9.104;2022-11-20T08:02:39;100607.72;;;0.21;85.19
3132;BME280;62090;52.330;9.104;2022-11-20T08:05:09;100592.06;;;0.12;85.11
3132;BME280;62090;52.330;9.104;2022-11-20T08:07:40;100602.13;;;0.25;85.05
3132;BME280;62090;52.330;9.104;2022-11-20T08:10:12;100605.78;;;0.30;84.78
3132;BME280;62090;52.330;9.104;2022-11-20T08:12:49;100608.66;;;0.23;85.09
3132;BME280;62090;52.330;9.104;2022-11-20T08:15:33;100601.22;;;0.11;86.71
3132;BME280;62090;52.330;9.104;2022-11-20T08:18:05;100605.59;;;0.14;86.72
3132;BME280;62090;52.330;9.104;2022-11-20T08:20:57;100614.34;;;0.33;86.21
3132;BME280;62090;52.330;9.104;2022-11-20T08:23:26;100626.56;;;0.55;85.24
3132;BME280;62090;52.330;9.104;2022-11-20T08:25:57;100620.41;;;0.50;85.04
3132;BME280;62090;52.330;9.104;2022-11-20T08:28:29;100618.28;;;0.43;85.45
3132;BME280;62090;52.330;9.104;2022-11-20T08:31:01;100621.09;;;0.48;85.45
3132;BME280;62090;52.330;9.104;2022-11-20T08:33:32;100597.34;;;0.56;85.23
3132;BME280;62090;52.330;9.104;2022-11-20T08:36:04;100578.00;;;0.40;84.70
3132;BME280;62090;52.330;9.104;2022-11-20T08:38:34;100598.84;;;0.26;86.16
3132;BME280;62090;52.330;9.104;2022-11-20T08:41:05;100590.72;;;0.17;85.98
3132;BME280;62090;52.330;9.104;2022-11-20T08:43:52;100593.03;;;0.27;86.83
3132;BME280;62090;52.330;9.104;2022-11-20T08:46:23;100593.91;;;0.27;86.67
3132;BME280;62090;52.330;9.104;2022-11-20T08:48:54;100605.09;;;0.46;85.83
3132;BME280;62090;52.330;9.104;2022-11-20T08:51:24;100588.00;;;0.53;85.22
3132;BME280;62090;52.330;9.104;2022-11-20T08:53:54;100595.03;;;0.72;84.78
3132;BME280;62090;52.330;9.104;2022-11-20T08:56:26;100578.09;;;0.41;84.14
3132;BME280;62090;52.330;9.104;2022-11-20T08:59:00;100598.16;;;0.28;84.39
3132;BME280;62090;52.330;9.104;2022-11-20T09:01:49;100598.22;;;0.43;84.95
3132;BME280;62090;52.330;9.104;2022-11-20T09:04:23;100604.72;;;0.80;84.05
3132;BME280;62090;52.330;9.104;2022-11-20T09:06:59;100609.09;;;1.11;82.80
3132;BME280;62090;52.330;9.104;2022-11-20T09:09:33;100584.44;;;1.18;81.82
3132;BME280;62090;52.330;9.104;2022-11-20T09:12:04;100580.84;;;0.72;82.39
3132;BME280;62090;52.330;9.104;2022-11-20T09:14:38;100602.81;;;0.76;84.04
3132;BME280;62090;52.330;9.104;2022-11-20T09:17:09;100604.50;;;0.91;83.06
3132;BME280;62090;52.330;9.104;2022-11-20T09:19:40;100598.59;;;1.03;82.17
3132;BME280;62090;52.330;9.104;2022-11-20T09:22:10;100601.59;;;1.25;81.65
3132;BME280;62090;52.330;9.104;2022-11-20T09:24:41;100610.44;;;1.34;81.20
3132;BME280;62090;52.330;9.104;2022-11-20T09:27:11;100604.72;;;1.21;81.74
3132;BME280;62090;52.330;9.104;2022-11-20T09:29:47;100606.34;;;1.21;82.57
3132;BME280;62090;52.330;9.104;2022-11-20T09:32:16;100594.34;;;1.02;83.34
3132;BME280;62090;52.330;9.104;2022-11-20T09:34:46;100583.53;;;1.03;83.19
3132;BME280;62090;52.330;9.104;2022-11-20T09:37:20;100606.38;;;1.08;83.57
3132;BME280;62090;52.330;9.104;2022-11-20T09:39:50;100555.66;;;0.84;83.08
3132;BME280;62090;52.330;9.104;2022-11-20T09:42:28;100580.06;;;1.01;80.98
3132;BME280;62090;52.330;9.104;2022-11-20T09:45:21;100616.72;;;1.27;78.63
3132;BME280;62090;52.330;9.104;2022-11-20T09:48:03;100612.69;;;1.44;79.17
3132;BME280;62090;52.330;9.104;2022-11-20T09:50:38;100611.16;;;1.60;79.32
3132;BME280;62090;52.330;9.104;2022-11-20T09:53:22;100602.25;;;1.80;79.55
3132;BME280;62090;52.330;9.104;2022-11-20T09:55:54;100589.69;;;1.80;78.35
3132;BME280;62090;52.330;9.104;2022-11-20T09:58:29;100603.31;;;1.84;77.26
3132;BME280;62090;52.330;9.104;2022-11-20T10:01:10;100602.00;;;1.76;77.50
3132;BME280;62090;52.330;9.104;2022-11-20T10:03:52;100598.00;;;1.64;77.84
3132;BME280;62090;52.330;9.104;2022-11-20T10:06:29;100615.00;;;1.68;78.05
3132;BME280;62090;52.330;9.104;2022-11-20T10:09:16;100612.91;;;1.76;78.31
3132;BME280;62090;52.330;9.104;2022-11-20T10:11:59;100606.66;;;1.69;79.09
3132;BME280;62090;52.330;9.104;2022-11-20T10:14:41;100585.97;;;1.59;79.83
3132;BME280;62090;52.330;9.104;2022-11-20T10:17:26;100601.91;;;1.59;80.92
3132;BME280;62090;52.330;9.104;2022-11-20T10:20:15;100586.06;;;1.60;81.57
3132;BME280;62090;52.330;9.104;2022-11-20T10:22:55;100585.53;;;1.51;82.62
3132;BME280;62090;52.330;9.104;2022-11-20T10:25:36;100563.31;;;1.43;82.34
3132;BME280;62090;52.330;9.104;2022-11-20T10:28:15;100595.22;;;1.60;82.64
3132;BME280;62090;52.330;9.104;2022-11-20T10:30:56;100600.25;;;1.75;82.72
3132;BME280;62090;52.330;9.104;2022-11-20T10:33:34;100591.59;;;1.69;82.54
3132;BME280;62090;52.330;9.104;2022-11-20T10:36:28;100586.25;;;1.63;83.00
3132;BME280;62090;52.330;9.104;2022-11-20T10:39:07;100575.66;;;1.54;82.82
3132;BME280;62090;52.330;9.104;2022-11-20T10:41:42;100564.50;;;1.64;83.53
3132;BME280;62090;52.330;9.104;2022-11-20T10:44:16;100568.41;;;1.74;83.60
3132;BME280;62090;52.330;9.104;2022-11-20T10:47:13;100553.31;;;1.59;84.62
3132;BME280;62090;52.330;9.104;2022-11-20T10:49:48;100536.09;;;1.50;85.40
3132;BME280;62090;52.330;9.104;2022-11-20T10:52:28;100550.13;;;1.76;85.02
3132;BME280;62090;52.330;9.104;2022-11-20T10:55:08;100554.44;;;1.64;84.81
3132;BME280;62090;52.330;9.104;2022-11-20T10:57:52;100555.00;;;1.58;85.43
3132;BME280;62090;52.330;9.104;2022-11-20T11:00:23;100502.75;;;1.38;85.92
3132;BME280;62090;52.330;9.104;2022-11-20T11:02:54;100541.06;;;1.63;86.24
3132;BME280;62090;52.330;9.104;2022-11-20T11:05:41;100554.13;;;1.73;85.61
3132;BME280;62090;52.330;9.104;2022-11-20T11:08:17;100552.72;;;1.78;85.94
3132;BME280;62090;52.330;9.104;2022-11-20T11:10:54;100546.84;;;1.77;86.10
3132;BME280;62090;52.330;9.104;2022-11-20T11:13:28;100498.25;;;1.77;85.44
3132;BME280;62090;52.330;9.104;2022-11-20T11:15:58;100531.59;;;2.20;84.87
3132;BME280;62090;52.330;9.104;2022-11-20T11:18:29;100522.41;;;2.20;83.77
3132;BME280;62090;52.330;9.104;2022-11-20T11:21:04;100536.03;;;2.40;83.50
3132;BME280;62090;52.330;9.104;2022-11-20T11:23:36;100514.63;;;2.46;82.66
3132;BME280;62090;52.330;9.104;2022-11-20T11:26:19;100526.22;;;2.44;82.07
3132;BME280;62090;52.330;9.104;2022-11-20T11:28:54;100514.72;;;2.33;82.68
3132;BME280;62090;52.330;9.104;2022-11-20T11:31:25;100519.75;;;2.33;83.66
3132;BME280;62090;52.330;9.104;2022-11-20T11:34:04;100465.06;;;2.13;82.14
3132;BME280;62090;52.330;9.104;2022-11-20T11:36:37;100508.31;;;2.54;82.02
3132;BME280;62090;52.330;9.104;2022-11-20T11:39:14;100508.41;;;2.56;81.28
3132;BME280;62090;52.330;9.104;2022-11-20T11:41:45;100489.91;;;2.39;81.93
3132;BME280;62090;52.330;9.104;2022-11-20T11:44:17;100504.56;;;2.63;81.99
3132;BME280;62090;52.330;9.104;2022-11-20T11:47:02;100490.47;;;2.50;81.92
3132;BME280;62090;52.330;9.104;2022-11-20T11:49:36;100493.09;;;2.51;83.08
3132;BME280;62090;52.330;9.104;2022-11-20T11:52:14;100496.06;;;2.61;81.96
3132;BME280;62090;52.330;9.104;2022-11-20T11:54:50;100504.34;;;2.74;82.37
3132;BME280;62090;52.330;9.104;2022-11-20T11:57:32;100495.94;;;2.74;81.85
3132;BME280;62090;52.330;9.104;2022-11-20T12:00:10;100506.91;;;2.76;81.63
3132;BME280;62090;52.330;9.104;2022-11-20T12:02:55;100499.06;;;2.86;80.38
3132;BME280;62090;52.330;9.104;2022-11-20T12:05:29;100477.69;;;2.78;80.98
3132;BME280;62090;52.330;9.104;2022-11-20T12:08:05;100471.78;;;2.77;81.20
3132;BME280;62090;52.330;9.104;2022-11-20T12:10:46;100493.09;;;3.00;80.08
3132;BME280;62090;52.330;9.104;2022-11-20T12:13:25;100497.47;;;3.20;80.10
3132;BME280;62090;52.330;9.104;2022-11-20T12:15:56;100490.25;;;3.28;80.07
3132;BME280;62090;52.330;9.104;2022-11-20T12:18:29;100449.56;;;3.03;79.02
3132;BME280;62090;52.330;9.104;2022-11-20T12:21:05;100479.63;;;3.33;78.71
3132;BME280;62090;52.330;9.104;2022-11-20T12:26:44;100450.84;;;3.28;79.76
3132;BME280;62090;52.330;9.104;2022-11-20T12:29:27;100468.59;;;3.48;79.43
3132;BME280;62090;52.330;9.104;2022-11-20T12:32:18;100444.88;;;3.26;79.17
3132;BME280;62090;52.330;9.104;2022-11-20T12:35:00;100461.94;;;3.32;80.16
3132;BME280;62090;52.330;9.104;2022-11-20T12:37:47;100446.72;;;3.13;80.03
3132;BME280;62090;52.330;9.104;2022-11-20T12:40:29;100452.75;;;3.32;79.70
3132;BME280;62090;52.330;9.104;2022-11-20T12:43:09;100464.25;;;3.45;78.87
3132;BME280;62090;52.330;9.104;2022-11-20T12:46:08;100461.94;;;3.50;78.58
3132;BME280;62090;52.330;9.104;2022-11-20T12:49:13;100471.09;;;3.48;78.40
3132;BME280;62090;52.330;9.104;2022-11-20T12:55:08;100455.00;;;3.62;79.71
3132;BME280;62090;52.330;9.104;2022-11-20T12:57:48;100461.84;;;3.64;79.69
3132;BME280;62090;52.330;9.104;2022-11-20T13:00:21;100442.97;;;3.74;79.79
3132;BME280;62090;52.330;9.104;2022-11-20T13:03:40;100427.09;;;3.94;78.14
3132;BME280;62090;52.330;9.104;2022-11-20T13:06:14;100449.81;;;4.13;77.91
3132;BME280;62090;52.330;9.104;2022-11-20T13:08:50;100418.84;;;3.79;78.18
3132;BME280;62090;52.330;9.104;2022-11-20T13:11:27;100424.97;;;3.84;79.07
3132;BME280;62090;52.330;9.104;2022-11-20T13:14:14;100426.81;;;3.88;78.42
3132;BME280;62090;52.330;9.104;2022-11-20T13:16:53;100432.44;;;4.00;77.57
3132;BME280;62090;52.330;9.104;2022-11-20T13:19:33;100437.81;;;4.08;77.50
3132;BME280;62090;52.330;9.104;2022-11-20T13:22:04;100439.91;;;4.16;77.17
3132;BME280;62090;52.330;9.104;2022-11-20T13:24:34;100440.59;;;4.14;76.60
3132;BME280;62090;52.330;9.104;2022-11-20T13:27:21;100442.63;;;4.21;76.62
3132;BME280;62090;52.330;9.104;2022-11-20T13:30:13;100438.75;;;3.92;76.39
3132;BME280;62090;52.330;9.104;2022-11-20T13:32:48;100444.19;;;3.82;77.04
3132;BME280;62090;52.330;9.104;2022-11-20T13:35:28;100437.28;;;3.96;75.78
3132;BME280;62090;52.330;9.104;2022-11-20T13:38:04;100440.91;;;4.02;76.55
3132;BME280;62090;52.330;9.104;2022-11-20T13:40:50;100434.00;;;3.98;76.89
3132;BME280;62090;52.330;9.104;2022-11-20T13:43:26;100436.16;;;4.08;76.72
3132;BME280;62090;52.330;9.104;2022-11-20T13:46:01;100382.97;;;3.85;76.65
3132;BME280;62090;52.330;9.104;2022-11-20T13:48:34;100417.03;;;4.13;76.43